sensor_id;sensor_type;location;lat;lon;timestamp;temperature;humidity
16040;DHT22;8124;48.634;8.120;2022-08-01T00:02:54;26.50;68.10
16040;DHT22;8124;48.634;8.120;2022-08-01T00:07:58;26.30;68.60
16040;DHT22;8124;48.634;8.120;2022-08-01T00:13:01;26.20;70.50
16040;DHT22;8124;48.634;8.120;2022-08-01T00:18:04;26.00;70.80
16040;DHT22;8124;48.634;8.120;2022-08-01T00:23:08;25.80;72.10
16040;DHT22;8124;48.634;8.120;2022-08-01T00:28:11;25.70;73.60
16040;DHT22;8124;48.634;8.120;2022-08-01T00:33:15;25.70;74.80
16040;DHT22;8124;48.634;8.120;2022-08-01T00:38:19;25.70;76.00
16040;DHT22;8124;48.634;8.120;2022-08-01T00:43:22;25.70;76.50
16040;DHT22;8124;48.634;8.120;2022-08-01T00:48:25;25.40;77.90
16040;DHT22;8124;48.634;8.120;2022-08-01T00:53:29;25.50;78.30
16040;DHT22;8124;48.634;8.120;2022-08-01T00:58:53;25.60;78.30
16040;DHT22;8124;48.634;8.120;2022-08-01T01:03:57;25.50;79.80
16040;DHT22;8124;48.634;8.120;2022-08-01T01:09:15;25.40;80.90
16040;DHT22;8124;48.634;8.120;2022-08-01T01:14:26;25.40;82.40
16040;DHT22;8124;48.634;8.120;2022-08-01T01:19:32;25.10;84.30
16040;DHT22;8124;48.634;8.120;2022-08-01T01:24:44;24.70;87.60
16040;DHT22;8124;48.634;8.120;2022-08-01T01:29:52;24.60;90.50
16040;DHT22;8124;48.634;8.120;2022-08-01T01:35:04;24.70;92.00
16040;DHT22;8124;48.634;8.120;2022-08-01T01:40:10;24.90;92.20
16040;DHT22;8124;48.634;8.120;2022-08-01T01:45:15;24.70;92.60
16040;DHT22;8124;48.634;8.120;2022-08-01T01:50:20;24.70;93.40
16040;DHT22;8124;48.634;8.120;2022-08-01T01:55:24;24.70;94.70
16040;DHT22;8124;48.634;8.120;2022-08-01T02:00:30;24.80;94.20
16040;DHT22;8124;48.634;8.120;2022-08-01T02:05:36;24.80;94.10
16040;DHT22;8124;48.634;8.120;2022-08-01T02:10:40;24.90;93.80
16040;DHT22;8124;48.634;8.120;2022-08-01T02:16:05;24.80;93.80
16040;DHT22;8124;48.634;8.120;2022-08-01T02:21:12;24.80;93.70
16040;DHT22;8124;48.634;8.120;2022-08-01T02:26:17;24.70;93.70
16040;DHT22;8124;48.634;8.120;2022-08-01T02:31:22;24.50;94.70
16040;DHT22;8124;48.634;8.120;2022-08-01T02:36:26;24.10;96.30
16040;DHT22;8124;48.634;8.120;2022-08-01T02:41:38;24.20;98.00
16040;DHT22;8124;48.634;8.120;2022-08-01T02:46:47;24.40;98.00
16040;DHT22;8124;48.634;8.120;2022-08-01T02:51:53;24.30;98.10
16040;DHT22;8124;48.634;8.120;2022-08-01T02:56:58;24.30;98.20
16040;DHT22;8124;48.634;8.120;2022-08-01T03:02:04;24.30;98.20
16040;DHT22;8124;48.634;8.120;2022-08-01T03:07:11;24.30;98.60
16040;DHT22;8124;48.634;8.120;2022-08-01T03:12:17;24.10;99.90
16040;DHT22;8124;48.634;8.120;2022-08-01T03:17:24;24.00;99.90
16040;DHT22;8124;48.634;8.120;2022-08-01T03:22:29;23.70;99.90
16040;DHT22;8124;48.634;8.120;2022-08-01T03:27:36;23.90;99.90
16040;DHT22;8124;48.634;8.120;2022-08-01T03:32:41;23.80;99.90
16040;DHT22;8124;48.634;8.120;2022-08-01T03:37:46;23.60;99.90
16040;DHT22;8124;48.634;8.120;2022-08-01T03:43:15;23.60;99.90
16040;DHT22;8124;48.634;8.120;2022-08-01T03:48:27;23.60;99.90
16040;DHT22;8124;48.634;8.120;2022-08-01T03:53:32;23.60;99.90
16040;DHT22;8124;48.634;8.120;2022-08-01T03:58:39;23.50;99.90
16040;DHT22;8124;48.634;8.120;2022-08-01T04:03:44;23.60;99.90
16040;DHT22;8124;48.634;8.120;2022-08-01T04:08:47;23.60;99.90
16040;DHT22;8124;48.634;8.120;2022-08-01T04:13:57;23.60;99.90
16040;DHT22;8124;48.634;8.120;2022-08-01T04:19:02;23.70;99.90
16040;DHT22;8124;48.634;8.120;2022-08-01T04:24:09;23.80;99.90
16040;DHT22;8124;48.634;8.120;2022-08-01T04:29:15;23.70;99.90
16040;DHT22;8124;48.634;8.120;2022-08-01T04:34:23;23.60;99.90
16040;DHT22;8124;48.634;8.120;2022-08-01T04:39:28;23.60;99.90
16040;DHT22;8124;48.634;8.120;2022-08-01T04:44:51;23.60;99.90
16040;DHT22;8124;48.634;8.120;2022-08-01T04:49:56;23.60;99.90
16040;DHT22;8124;48.634;8.120;2022-08-01T04:54:59;23.40;99.90
16040;DHT22;8124;48.634;8.120;2022-08-01T05:00:03;23.50;99.90
16040;DHT22;8124;48.634;8.120;2022-08-01T05:05:09;23.50;99.90
16040;DHT22;8124;48.634;8.120;2022-08-01T05:10:14;23.60;99.90
16040;DHT22;8124;48.634;8.120;2022-08-01T05:15:17;23.60;99.90
16040;DHT22;8124;48.634;8.120;2022-08-01T05:20:21;23.70;99.90
16040;DHT22;8124;48.634;8.120;2022-08-01T05:25:24;23.70;99.90
16040;DHT22;8124;48.634;8.120;2022-08-01T05:30:47;23.90;99.90
16040;DHT22;8124;48.634;8.120;2022-08-01T05:35:51;24.20;99.90
16040;DHT22;8124;48.634;8.120;2022-08-01T05:40:54;24.20;99.90
16040;DHT22;8124;48.634;8.120;2022-08-01T05:45:57;24.50;99.90
16040;DHT22;8124;48.634;8.120;2022-08-01T05:51:02;24.60;99.90
16040;DHT22;8124;48.634;8.120;2022-08-01T05:56:05;24.80;99.90
16040;DHT22;8124;48.634;8.120;2022-08-01T06:01:08;25.00;99.90
16040;DHT22;8124;48.634;8.120;2022-08-01T06:06:14;25.30;99.90
16040;DHT22;8124;48.634;8.120;2022-08-01T06:11:17;25.30;99.90
16040;DHT22;8124;48.634;8.120;2022-08-01T06:16:19;25.60;99.90
16040;DHT22;8124;48.634;8.120;2022-08-01T06:21:24;25.70;99.90
16040;DHT22;8124;48.634;8.120;2022-08-01T06:26:27;25.90;99.90
16040;DHT22;8124;48.634;8.120;2022-08-01T06:31:29;26.00;99.90
16040;DHT22;8124;48.634;8.120;2022-08-01T06:36:36;26.00;99.90
16040;DHT22;8124;48.634;8.120;2022-08-01T06:41:38;26.00;99.90
16040;DHT22;8124;48.634;8.120;2022-08-01T06:46:43;26.10;99.90
16040;DHT22;8124;48.634;8.120;2022-08-01T06:51:47;26.30;99.90
16040;DHT22;8124;48.634;8.120;2022-08-01T06:56:50;26.30;99.90
16040;DHT22;8124;48.634;8.120;2022-08-01T07:01:53;26.30;99.90
16040;DHT22;8124;48.634;8.120;2022-08-01T07:06:57;26.40;99.90
16040;DHT22;8124;48.634;8.120;2022-08-01T07:12:00;26.30;99.90
16040;DHT22;8124;48.634;8.120;2022-08-01T07:17:03;26.50;99.90
16040;DHT22;8124;48.634;8.120;2022-08-01T07:22:07;26.60;99.90
16040;DHT22;8124;48.634;8.120;2022-08-01T07:27:11;26.70;99.90
16040;DHT22;8124;48.634;8.120;2022-08-01T07:32:26;26.60;99.90
16040;DHT22;8124;48.634;8.120;2022-08-01T07:37:32;26.80;99.90
16040;DHT22;8124;48.634;8.120;2022-08-01T07:42:49;27.10;99.90
16040;DHT22;8124;48.634;8.120;2022-08-01T07:47:52;27.00;99.90
16040;DHT22;8124;48.634;8.120;2022-08-01T07:52:56;26.70;99.90
16040;DHT22;8124;48.634;8.120;2022-08-01T07:58:00;26.80;99.90
16040;DHT22;8124;48.634;8.120;2022-08-01T08:03:03;26.70;99.90
16040;DHT22;8124;48.634;8.120;2022-08-01T08:08:08;26.70;99.90
16040;DHT22;8124;48.634;8.120;2022-08-01T08:13:11;26.90;99.90
16040;DHT22;8124;48.634;8.120;2022-08-01T08:18:15;27.10;99.90
16040;DHT22;8124;48.634;8.120;2022-08-01T08:23:19;27.50;99.90
16040;DHT22;8124;48.634;8.120;2022-08-01T08:28:44;27.70;99.90
16040;DHT22;8124;48.634;8.120;2022-08-01T08:33:48;27.90;99.90
16040;DHT22;8124;48.634;8.120;2022-08-01T08:38:52;27.60;99.90
16040;DHT22;8124;48.634;8.120;2022-08-01T08:43:55;27.70;99.90
16040;DHT22;8124;48.634;8.120;2022-08-01T08:49:00;27.30;99.90
16040;DHT22;8124;48.634;8.120;2022-08-01T08:54:11;27.70;99.90
16040;DHT22;8124;48.634;8.120;2022-08-01T08:59:14;27.70;99.90
16040;DHT22;8124;48.634;8.120;2022-08-01T09:04:17;27.70;99.90
16040;DHT22;8124;48.634;8.120;2022-08-01T09:09:24;28.00;99.90
16040;DHT22;8124;48.634;8.120;2022-08-01T09:14:27;27.90;99.90
16040;DHT22;8124;48.634;8.120;2022-08-01T09:19:37;27.80;99.90
16040;DHT22;8124;48.634;8.120;2022-08-01T09:24:57;27.90;99.90
16040;DHT22;8124;48.634;8.120;2022-08-01T09:30:11;28.00;99.90
16040;DHT22;8124;48.634;8.120;2022-08-01T09:35:26;28.30;99.90
16040;DHT22;8124;48.634;8.120;2022-08-01T09:40:46;28.30;99.90
16040;DHT22;8124;48.634;8.120;2022-08-01T09:45:50;28.30;99.90
16040;DHT22;8124;48.634;8.120;2022-08-01T09:50:56;28.50;99.90
16040;DHT22;8124;48.634;8.120;2022-08-01T09:56:11;28.50;99.90
16040;DHT22;8124;48.634;8.120;2022-08-01T10:01:14;28.40;99.90
16040;DHT22;8124;48.634;8.120;2022-08-01T10:06:20;28.30;99.90
16040;DHT22;8124;48.634;8.120;2022-08-01T10:11:28;28.40;99.90
16040;DHT22;8124;48.634;8.120;2022-08-01T10:16:38;28.40;99.90
16040;DHT22;8124;48.634;8.120;2022-08-01T10:21:43;28.50;99.90
16040;DHT22;8124;48.634;8.120;2022-08-01T10:27:03;28.70;99.90
16040;DHT22;8124;48.634;8.120;2022-08-01T10:32:10;28.60;99.90
16040;DHT22;8124;48.634;8.120;2022-08-01T10:37:13;28.50;99.90
16040;DHT22;8124;48.634;8.120;2022-08-01T10:42:19;28.80;99.90
16040;DHT22;8124;48.634;8.120;2022-08-01T10:47:27;29.10;99.90
16040;DHT22;8124;48.634;8.120;2022-08-01T10:53:12;29.70;99.90
16040;DHT22;8124;48.634;8.120;2022-08-01T10:58:27;29.70;99.90
16040;DHT22;8124;48.634;8.120;2022-08-01T11:03:34;29.80;99.30
16040;DHT22;8124;48.634;8.120;2022-08-01T11:08:57;29.80;98.50
16040;DHT22;8124;48.634;8.120;2022-08-01T11:14:04;30.20;98.30
16040;DHT22;8124;48.634;8.120;2022-08-01T11:19:11;30.50;97.80
16040;DHT22;8124;48.634;8.120;2022-08-01T11:24:14;30.00;96.40
16040;DHT22;8124;48.634;8.120;2022-08-01T11:29:18;29.50;95.30
16040;DHT22;8124;48.634;8.120;2022-08-01T11:34:52;29.30;95.20
16040;DHT22;8124;48.634;8.120;2022-08-01T11:40:14;28.90;95.30
16040;DHT22;8124;48.634;8.120;2022-08-01T11:45:19;28.90;95.90
16040;DHT22;8124;48.634;8.120;2022-08-01T11:50:33;29.00;96.40
16040;DHT22;8124;48.634;8.120;2022-08-01T11:55:36;29.20;96.80
16040;DHT22;8124;48.634;8.120;2022-08-01T12:00:40;29.10;96.70
16040;DHT22;8124;48.634;8.120;2022-08-01T12:05:47;29.30;96.70
16040;DHT22;8124;48.634;8.120;2022-08-01T12:10:50;29.30;96.30
16040;DHT22;8124;48.634;8.120;2022-08-01T12:16:08;29.00;95.90
16040;DHT22;8124;48.634;8.120;2022-08-01T12:21:11;29.20;96.30
16040;DHT22;8124;48.634;8.120;2022-08-01T12:26:14;29.40;96.50
16040;DHT22;8124;48.634;8.120;2022-08-01T12:31:34;29.60;96.40
16040;DHT22;8124;48.634;8.120;2022-08-01T12:36:37;29.70;96.10
16040;DHT22;8124;48.634;8.120;2022-08-01T12:41:42;29.70;95.80
16040;DHT22;8124;48.634;8.120;2022-08-01T12:46:47;29.90;95.50
16040;DHT22;8124;48.634;8.120;2022-08-01T12:51:50;30.00;95.20
16040;DHT22;8124;48.634;8.120;2022-08-01T12:56:58;30.20;94.80
16040;DHT22;8124;48.634;8.120;2022-08-01T13:02:09;30.50;94.50
16040;DHT22;8124;48.634;8.120;2022-08-01T13:07:12;30.40;93.70
16040;DHT22;8124;48.634;8.120;2022-08-01T13:12:15;30.70;93.50
16040;DHT22;8124;48.634;8.120;2022-08-01T13:17:31;30.80;92.90
16040;DHT22;8124;48.634;8.120;2022-08-01T13:22:34;30.00;91.70
16040;DHT22;8124;48.634;8.120;2022-08-01T13:27:38;30.00;91.70
16040;DHT22;8124;48.634;8.120;2022-08-01T13:33:00;30.20;91.80
16040;DHT22;8124;48.634;8.120;2022-08-01T13:38:03;30.10;91.50
16040;DHT22;8124;48.634;8.120;2022-08-01T13:43:06;29.80;91.10
16040;DHT22;8124;48.634;8.120;2022-08-01T13:48:10;29.90;91.10
16040;DHT22;8124;48.634;8.120;2022-08-01T13:53:20;29.60;90.80
16040;DHT22;8124;48.634;8.120;2022-08-01T13:58:23;30.10;91.30
16040;DHT22;8124;48.634;8.120;2022-08-01T14:03:27;30.20;91.10
16040;DHT22;8124;48.634;8.120;2022-08-01T14:08:34;30.20;90.90
16040;DHT22;8124;48.634;8.120;2022-08-01T14:13:37;30.40;90.70
16040;DHT22;8124;48.634;8.120;2022-08-01T14:18:48;30.10;90.00
16040;DHT22;8124;48.634;8.120;2022-08-01T14:23:51;30.10;89.50
16040;DHT22;8124;48.634;8.120;2022-08-01T14:28:54;30.20;89.30
16040;DHT22;8124;48.634;8.120;2022-08-01T14:33:58;30.20;88.80
16040;DHT22;8124;48.634;8.120;2022-08-01T14:39:02;30.00;87.70
16040;DHT22;8124;48.634;8.120;2022-08-01T14:44:05;29.70;87.00
16040;DHT22;8124;48.634;8.120;2022-08-01T14:49:09;29.80;87.10
16040;DHT22;8124;48.634;8.120;2022-08-01T14:54:12;29.80;87.20
16040;DHT22;8124;48.634;8.120;2022-08-01T14:59:15;30.00;87.60
16040;DHT22;8124;48.634;8.120;2022-08-01T15:04:25;30.10;87.60
16040;DHT22;8124;48.634;8.120;2022-08-01T15:09:28;30.20;87.40
16040;DHT22;8124;48.634;8.120;2022-08-01T15:14:31;30.00;86.50
16040;DHT22;8124;48.634;8.120;2022-08-01T15:19:55;29.60;85.50
16040;DHT22;8124;48.634;8.120;2022-08-01T15:25:00;29.70;85.80
16040;DHT22;8124;48.634;8.120;2022-08-01T15:30:07;29.70;85.50
16040;DHT22;8124;48.634;8.120;2022-08-01T15:35:12;29.70;85.50
16040;DHT22;8124;48.634;8.120;2022-08-01T15:40:18;29.90;85.70
16040;DHT22;8124;48.634;8.120;2022-08-01T15:45:23;30.10;85.70
16040;DHT22;8124;48.634;8.120;2022-08-01T15:51:06;29.80;84.90
16040;DHT22;8124;48.634;8.120;2022-08-01T15:56:10;29.50;84.40
16040;DHT22;8124;48.634;8.120;2022-08-01T16:01:19;29.70;85.10
16040;DHT22;8124;48.634;8.120;2022-08-01T16:06:25;30.00;85.90
16040;DHT22;8124;48.634;8.120;2022-08-01T16:11:29;29.60;85.10
16040;DHT22;8124;48.634;8.120;2022-08-01T16:16:32;29.30;84.70
16040;DHT22;8124;48.634;8.120;2022-08-01T16:21:54;29.50;85.50
16040;DHT22;8124;48.634;8.120;2022-08-01T16:27:03;29.50;85.90
16040;DHT22;8124;48.634;8.120;2022-08-01T16:32:06;29.60;86.30
16040;DHT22;8124;48.634;8.120;2022-08-01T16:37:30;29.70;86.60
16040;DHT22;8124;48.634;8.120;2022-08-01T16:42:53;29.40;86.30
16040;DHT22;8124;48.634;8.120;2022-08-01T16:47:59;29.50;86.90
16040;DHT22;8124;48.634;8.120;2022-08-01T16:53:09;29.40;86.90
16040;DHT22;8124;48.634;8.120;2022-08-01T16:58:14;29.10;86.50
16040;DHT22;8124;48.634;8.120;2022-08-01T17:03:18;29.20;87.00
16040;DHT22;8124;48.634;8.120;2022-08-01T17:08:47;29.00;87.20
16040;DHT22;8124;48.634;8.120;2022-08-01T17:19:03;28.60;89.00
16040;DHT22;8124;48.634;8.120;2022-08-01T17:24:10;28.60;90.10
16040;DHT22;8124;48.634;8.120;2022-08-01T17:29:17;28.50;90.50
16040;DHT22;8124;48.634;8.120;2022-08-01T17:34:36;28.60;91.00
16040;DHT22;8124;48.634;8.120;2022-08-01T17:39:59;28.70;91.20
16040;DHT22;8124;48.634;8.120;2022-08-01T17:45:39;28.80;91.50
16040;DHT22;8124;48.634;8.120;2022-08-01T17:50:52;28.90;91.60
16040;DHT22;8124;48.634;8.120;2022-08-01T17:55:57;28.90;91.70
16040;DHT22;8124;48.634;8.120;2022-08-01T18:01:02;28.90;91.80
16040;DHT22;8124;48.634;8.120;2022-08-01T18:06:07;28.80;91.80
16040;DHT22;8124;48.634;8.120;2022-08-01T18:11:13;28.80;92.00
16040;DHT22;8124;48.634;8.120;2022-08-01T18:16:16;28.80;93.30
16040;DHT22;8124;48.634;8.120;2022-08-01T18:21:19;28.90;95.10
16040;DHT22;8124;48.634;8.120;2022-08-01T18:26:27;28.70;96.20
16040;DHT22;8124;48.634;8.120;2022-08-01T18:31:30;28.60;97.30
16040;DHT22;8124;48.634;8.120;2022-08-01T18:36:36;28.50;98.10
16040;DHT22;8124;48.634;8.120;2022-08-01T18:41:43;28.40;99.40
16040;DHT22;8124;48.634;8.120;2022-08-01T18:46:52;28.40;99.90
16040;DHT22;8124;48.634;8.120;2022-08-01T18:51:56;28.40;99.90
16040;DHT22;8124;48.634;8.120;2022-08-01T18:57:00;28.40;99.90
16040;DHT22;8124;48.634;8.120;2022-08-01T19:02:04;28.10;99.90
16040;DHT22;8124;48.634;8.120;2022-08-01T19:07:07;27.70;99.90
16040;DHT22;8124;48.634;8.120;2022-08-01T19:12:14;27.90;99.90
16040;DHT22;8124;48.634;8.120;2022-08-01T19:17:29;27.90;99.90
16040;DHT22;8124;48.634;8.120;2022-08-01T19:22:34;28.00;99.90
16040;DHT22;8124;48.634;8.120;2022-08-01T19:27:43;27.60;99.90
16040;DHT22;8124;48.634;8.120;2022-08-01T19:32:47;27.50;99.90
16040;DHT22;8124;48.634;8.120;2022-08-01T19:37:51;27.70;99.90
16040;DHT22;8124;48.634;8.120;2022-08-01T19:42:56;27.70;99.90
16040;DHT22;8124;48.634;8.120;2022-08-01T19:48:17;27.60;99.90
16040;DHT22;8124;48.634;8.120;2022-08-01T19:53:42;27.60;99.90
16040;DHT22;8124;48.634;8.120;2022-08-01T19:59:35;27.60;99.90
16040;DHT22;8124;48.634;8.120;2022-08-01T20:04:38;27.40;99.90
16040;DHT22;8124;48.634;8.120;2022-08-01T20:09:46;27.50;99.90
16040;DHT22;8124;48.634;8.120;2022-08-01T20:14:56;27.50;99.90
16040;DHT22;8124;48.634;8.120;2022-08-01T20:20:06;27.20;99.90
16040;DHT22;8124;48.634;8.120;2022-08-01T20:25:09;27.10;99.90
16040;DHT22;8124;48.634;8.120;2022-08-01T20:30:14;27.30;99.90
16040;DHT22;8124;48.634;8.120;2022-08-01T20:35:20;27.40;99.90
16040;DHT22;8124;48.634;8.120;2022-08-01T20:40:42;27.00;99.90
16040;DHT22;8124;48.634;8.120;2022-08-01T20:45:48;27.00;99.90
16040;DHT22;8124;48.634;8.120;2022-08-01T20:50:52;27.00;99.90
16040;DHT22;8124;48.634;8.120;2022-08-01T20:56:26;26.80;99.90
16040;DHT22;8124;48.634;8.120;2022-08-01T21:01:33;26.80;99.90
16040;DHT22;8124;48.634;8.120;2022-08-01T21:06:45;26.80;99.90
16040;DHT22;8124;48.634;8.120;2022-08-01T21:11:56;26.80;99.90
16040;DHT22;8124;48.634;8.120;2022-08-01T21:17:07;26.70;99.90
16040;DHT22;8124;48.634;8.120;2022-08-01T21:22:19;26.70;99.90
16040;DHT22;8124;48.634;8.120;2022-08-01T21:27:28;26.40;99.90
16040;DHT22;8124;48.634;8.120;2022-08-01T21:32:36;26.30;99.90
16040;DHT22;8124;48.634;8.120;2022-08-01T21:37:41;26.10;99.90
16040;DHT22;8124;48.634;8.120;2022-08-01T21:42:46;26.00;99.90
16040;DHT22;8124;48.634;8.120;2022-08-01T21:47:51;26.10;99.90
16040;DHT22;8124;48.634;8.120;2022-08-01T21:53:03;26.00;99.90
16040;DHT22;8124;48.634;8.120;2022-08-01T21:58:17;26.00;99.90
16040;DHT22;8124;48.634;8.120;2022-08-01T22:03:28;25.60;99.90
16040;DHT22;8124;48.634;8.120;2022-08-01T22:08:34;25.70;99.90
16040;DHT22;8124;48.634;8.120;2022-08-01T22:13:37;25.90;99.90
16040;DHT22;8124;48.634;8.120;2022-08-01T22:18:42;25.70;99.90
16040;DHT22;8124;48.634;8.120;2022-08-01T22:23:46;25.90;99.90
16040;DHT22;8124;48.634;8.120;2022-08-01T22:28:50;25.40;99.90
16040;DHT22;8124;48.634;8.120;2022-08-01T22:33:55;25.50;99.90
16040;DHT22;8124;48.634;8.120;2022-08-01T22:38:58;25.50;99.90
16040;DHT22;8124;48.634;8.120;2022-08-01T22:44:03;25.60;99.90
16040;DHT22;8124;48.634;8.120;2022-08-01T22:49:17;25.60;99.90
16040;DHT22;8124;48.634;8.120;2022-08-01T22:54:28;25.20;99.90
16040;DHT22;8124;48.634;8.120;2022-08-01T22:59:41;25.20;99.90
16040;DHT22;8124;48.634;8.120;2022-08-01T23:04:48;25.10;99.90
16040;DHT22;8124;48.634;8.120;2022-08-01T23:09:54;25.00;99.90
16040;DHT22;8124;48.634;8.120;2022-08-01T23:14:59;25.00;99.90
16040;DHT22;8124;48.634;8.120;2022-08-01T23:20:05;24.90;99.90
16040;DHT22;8124;48.634;8.120;2022-08-01T23:25:10;24.20;99.90
16040;DHT22;8124;48.634;8.120;2022-08-01T23:30:14;24.20;99.90
16040;DHT22;8124;48.634;8.120;2022-08-01T23:35:19;24.30;99.90
16040;DHT22;8124;48.634;8.120;2022-08-01T23:40:22;24.40;99.90
16040;DHT22;8124;48.634;8.120;2022-08-01T23:45:26;24.20;99.90
16040;DHT22;8124;48.634;8.120;2022-08-01T23:50:50;24.20;99.90
16040;DHT22;8124;48.634;8.120;2022-08-01T23:55:53;24.30;99.90
